METAR Data

Data at: 2251 UTC 26 Feb 2020

METAR for:KEWB (New Bedford Rgnl, MA, US)
Text:KEWB 262153Z 05009KT 10SM OVC008 07/06 A2994 RMK AO2 SLP139 T00720056
Temperature: 7.2°C ( 45°F)
Dewpoint: 5.6°C ( 42°F) [RH = 90%]
Pressure (altimeter):29.94 inches Hg (1014.0 mb) [Sea level pressure: 1013.9 mb]
Winds:from the NE (50 degrees) at 10 MPH (9 knots; 4.6 m/s)
Visibility:10 or more sm (16+ km)
Ceiling:800 feet AGL
Clouds: overcast cloud deck at 800 feet AGL